createdAt,value
2022-10-30T00:01:19.554Z,6.30
2022-10-30T00:03:47.450Z,6.43
2022-10-30T00:06:15.107Z,6.13
2022-10-30T00:08:42.603Z,6.20
2022-10-30T00:11:11.390Z,7.07
2022-10-30T00:13:39.449Z,6.33
2022-10-30T00:16:08.245Z,6.60
2022-10-30T00:18:41.535Z,6.67
2022-10-30T00:21:13.194Z,6.30
2022-10-30T00:23:45.435Z,6.30
2022-10-30T00:26:13.154Z,6.30
2022-10-30T00:28:40.655Z,7.33
2022-10-30T00:31:08.175Z,6.00
2022-10-30T00:33:35.822Z,6.37
2022-10-30T00:36:03.368Z,6.70
2022-10-30T00:38:30.893Z,7.03
2022-10-30T00:40:58.470Z,7.40
2022-10-30T00:43:29.769Z,6.93
2022-10-30T00:45:58.698Z,6.83
2022-10-30T00:48:26.851Z,6.93
2022-10-30T00:50:55.229Z,6.70
2022-10-30T00:53:22.852Z,6.67
2022-10-30T00:55:53.659Z,6.83
2022-10-30T00:58:23.232Z,6.87
2022-10-30T01:00:52.584Z,7.50
2022-10-30T01:03:21.701Z,6.30
2022-10-30T01:05:52.878Z,7.17
2022-10-30T01:08:20.691Z,7.07
2022-10-30T01:10:48.860Z,6.93
2022-10-30T01:13:16.927Z,6.80
2022-10-30T01:16:13.784Z,7.80
2022-10-30T01:18:54.402Z,7.13
2022-10-30T01:21:37.230Z,7.23
2022-10-30T01:24:04.761Z,6.90
2022-10-30T01:26:39.075Z,6.90
2022-10-30T01:29:19.620Z,6.77
2022-10-30T01:32:13.468Z,8.00
2022-10-30T01:34:47.755Z,7.23
2022-10-30T01:37:18.779Z,6.63
2022-10-30T01:39:46.549Z,7.20
2022-10-30T01:42:32.891Z,7.50
2022-10-30T01:45:00.526Z,6.60
2022-10-30T01:47:48.471Z,7.60
2022-10-30T01:50:28.051Z,7.17
2022-10-30T01:52:55.840Z,7.57
2022-10-30T01:55:31.091Z,6.57
2022-10-30T01:58:19.143Z,7.87
2022-10-30T02:00:49.361Z,7.17
2022-10-30T02:03:17.001Z,8.10
2022-10-30T02:05:52.311Z,7.43
2022-10-30T02:08:20.470Z,7.30
2022-10-30T02:10:48.974Z,7.67
2022-10-30T02:13:16.714Z,7.63
2022-10-30T02:15:44.764Z,8.03
2022-10-30T02:18:12.497Z,8.73
2022-10-30T02:20:40.007Z,7.93
2022-10-30T02:23:08.231Z,8.43
2022-10-30T02:25:36.944Z,8.87
2022-10-30T02:28:04.554Z,7.40
2022-10-30T02:30:32.088Z,7.90
2022-10-30T02:33:00.084Z,7.73
2022-10-30T02:35:27.833Z,7.67
2022-10-30T02:37:55.762Z,7.73
2022-10-30T02:40:23.535Z,8.17
2022-10-30T02:42:54.413Z,8.17
2022-10-30T02:45:22.555Z,8.00
2022-10-30T02:47:50.209Z,8.43
2022-10-30T02:50:17.975Z,8.30
2022-10-30T02:52:45.538Z,7.83
2022-10-30T02:55:13.255Z,8.43
2022-10-30T02:57:40.772Z,8.43
2022-10-30T03:00:08.725Z,8.53
2022-10-30T03:02:36.227Z,8.23
2022-10-30T03:05:03.924Z,7.87
2022-10-30T03:07:31.397Z,7.70
2022-10-30T03:09:58.909Z,9.23
2022-10-30T03:12:26.454Z,8.87
2022-10-30T03:14:53.966Z,8.37
2022-10-30T03:17:21.412Z,9.20
2022-10-30T03:19:48.942Z,8.60
2022-10-30T03:22:16.414Z,7.63
2022-10-30T03:24:43.922Z,8.20
2022-10-30T03:27:11.395Z,8.97
2022-10-30T03:29:38.942Z,8.30
2022-10-30T03:32:09.583Z,8.20
2022-10-30T03:34:37.390Z,8.20
2022-10-30T03:37:05.754Z,8.47
2022-10-30T03:39:33.876Z,8.97
2022-10-30T03:42:01.372Z,8.30
2022-10-30T03:44:28.884Z,8.47
2022-10-30T03:46:56.435Z,8.40
2022-10-30T03:49:24.033Z,8.87
2022-10-30T03:51:51.535Z,9.23
2022-10-30T03:54:19.031Z,8.80
2022-10-30T03:56:46.507Z,8.90
2022-10-30T03:59:14.134Z,9.40
2022-10-30T04:01:41.798Z,9.30
2022-10-30T04:04:09.558Z,7.97
2022-10-30T04:06:37.001Z,8.93
2022-10-30T04:09:04.776Z,9.30
2022-10-30T04:11:32.408Z,8.93
2022-10-30T04:13:59.928Z,8.43
2022-10-30T04:16:27.422Z,9.40
2022-10-30T04:18:55.054Z,8.80
2022-10-30T04:21:22.522Z,8.90
2022-10-30T04:23:50.119Z,9.33
2022-10-30T04:26:17.550Z,9.03
2022-10-30T04:28:44.994Z,10.03
2022-10-30T04:31:12.465Z,8.90
2022-10-30T04:33:40.081Z,9.27
2022-10-30T04:36:07.778Z,8.70
2022-10-30T04:38:35.231Z,8.40
2022-10-30T04:41:02.794Z,7.63
2022-10-30T04:43:30.293Z,9.00
2022-10-30T04:45:57.748Z,9.03
2022-10-30T04:48:25.291Z,8.80
2022-10-30T04:50:52.771Z,9.23
2022-10-30T04:53:20.476Z,8.70
2022-10-30T04:55:47.927Z,9.00
2022-10-30T04:58:15.490Z,9.83
2022-10-30T05:00:42.946Z,8.77
2022-10-30T05:03:16.762Z,9.23
2022-10-30T05:05:44.315Z,8.47
2022-10-30T05:08:11.753Z,9.27
2022-10-30T05:10:40.135Z,9.13
2022-10-30T05:13:07.580Z,8.30
2022-10-30T05:15:35.019Z,9.47
2022-10-30T05:18:02.668Z,8.40
2022-10-30T05:20:30.300Z,9.43
2022-10-30T05:22:58.675Z,9.33
2022-10-30T05:25:26.665Z,9.13
2022-10-30T05:28:01.423Z,9.27
2022-10-30T05:30:29.949Z,8.97
2022-10-30T05:33:01.660Z,9.67
2022-10-30T05:35:30.062Z,9.73
2022-10-30T05:37:57.795Z,8.87
2022-10-30T05:40:25.325Z,9.83
2022-10-30T05:42:53.010Z,9.67
2022-10-30T05:45:20.764Z,9.27
2022-10-30T05:47:58.113Z,8.80
2022-10-30T05:50:26.659Z,9.27
2022-10-30T05:52:58.019Z,9.00
2022-10-30T05:55:25.774Z,9.43
2022-10-30T05:58:04.043Z,8.90
2022-10-30T06:00:32.987Z,9.47
2022-10-30T06:03:04.949Z,9.27
2022-10-30T06:05:33.784Z,9.57
2022-10-30T06:08:01.564Z,8.50
2022-10-30T06:10:29.517Z,8.90
2022-10-30T06:13:01.048Z,9.77
2022-10-30T06:15:29.633Z,9.67
2022-10-30T06:17:57.645Z,9.37
2022-10-30T06:20:26.766Z,8.90
2022-10-30T06:22:55.192Z,8.90
2022-10-30T06:25:22.956Z,8.53
2022-10-30T06:27:50.983Z,8.60
2022-10-30T06:30:18.957Z,9.33
2022-10-30T06:32:46.461Z,8.73
2022-10-30T06:35:14.026Z,9.30
2022-10-30T06:37:48.768Z,9.93
2022-10-30T06:40:16.976Z,8.80
2022-10-30T06:42:48.439Z,9.37
2022-10-30T06:45:16.693Z,9.20
2022-10-30T06:47:44.575Z,9.77
2022-10-30T06:50:13.780Z,9.30
2022-10-30T06:52:41.892Z,9.33
2022-10-30T06:55:09.995Z,9.00
2022-10-30T06:57:37.798Z,8.67
2022-10-30T07:00:06.221Z,9.10
2022-10-30T07:02:33.783Z,8.40
2022-10-30T07:05:01.254Z,9.13
2022-10-30T07:07:29.577Z,9.17
2022-10-30T07:09:57.031Z,9.17
2022-10-30T07:12:24.745Z,9.00
2022-10-30T07:14:52.166Z,9.70
2022-10-30T07:17:19.661Z,9.43
2022-10-30T07:19:47.221Z,8.53
2022-10-30T07:22:14.682Z,8.60
2022-10-30T07:24:42.212Z,9.00
2022-10-30T07:27:09.633Z,9.43
2022-10-30T07:29:37.132Z,9.23
2022-10-30T07:32:04.762Z,9.10
2022-10-30T07:34:32.311Z,9.67
2022-10-30T07:36:59.756Z,9.83
2022-10-30T07:39:27.272Z,9.70
2022-10-30T07:41:54.778Z,9.33
2022-10-30T07:44:22.271Z,10.10
2022-10-30T07:46:49.667Z,8.80
2022-10-30T07:49:17.247Z,8.97
2022-10-30T07:51:44.757Z,8.83
2022-10-30T07:54:12.259Z,9.50
2022-10-30T07:56:39.896Z,9.27
2022-10-30T07:59:07.695Z,9.13
2022-10-30T08:01:35.380Z,8.13
2022-10-30T08:04:03.129Z,8.33
2022-10-30T08:06:30.692Z,8.37
2022-10-30T08:08:58.294Z,8.50
2022-10-30T08:11:25.742Z,8.50
2022-10-30T08:13:53.263Z,7.53
2022-10-30T08:16:20.820Z,8.27
2022-10-30T08:18:48.282Z,7.33
2022-10-30T08:21:15.773Z,8.03
2022-10-30T08:23:43.325Z,7.57
2022-10-30T08:26:10.861Z,8.37
2022-10-30T08:28:38.362Z,8.07
2022-10-30T08:31:05.919Z,8.57
2022-10-30T08:33:36.029Z,9.10
2022-10-30T08:36:03.621Z,7.67
2022-10-30T08:38:31.083Z,8.03
2022-10-30T08:40:58.610Z,8.40
2022-10-30T08:43:26.122Z,7.90
2022-10-30T08:45:53.682Z,8.03
2022-10-30T08:48:21.191Z,9.13
2022-10-30T08:50:48.734Z,9.00
2022-10-30T08:53:16.303Z,8.27
2022-10-30T08:55:43.811Z,7.73
2022-10-30T08:58:11.395Z,8.07
2022-10-30T09:00:38.891Z,8.03
2022-10-30T09:03:06.370Z,8.00
2022-10-30T09:05:33.903Z,8.30
2022-10-30T09:08:02.202Z,6.50
2022-10-30T09:10:30.619Z,7.13
2022-10-30T09:12:58.700Z,7.33
2022-10-30T09:15:26.742Z,6.47
2022-10-30T09:18:01.803Z,7.53
2022-10-30T09:20:30.241Z,7.17
2022-10-30T09:22:58.374Z,7.00
2022-10-30T09:25:26.321Z,6.97
2022-10-30T09:27:53.860Z,6.77
2022-10-30T09:30:21.401Z,7.07
2022-10-30T09:32:56.454Z,8.20
2022-10-30T09:35:24.232Z,6.60
2022-10-30T09:37:51.776Z,6.70
2022-10-30T09:40:22.024Z,7.17
2022-10-30T09:42:49.951Z,7.17
2022-10-30T09:45:36.059Z,6.97
2022-10-30T09:48:13.158Z,6.80
2022-10-30T09:50:43.530Z,7.10
2022-10-30T09:53:18.431Z,7.43
2022-10-30T09:56:07.760Z,6.37
2022-10-30T09:58:54.133Z,6.43
2022-10-30T10:01:42.098Z,6.20
2022-10-30T10:04:25.568Z,6.17
2022-10-30T10:06:58.526Z,6.33
2022-10-30T10:09:27.165Z,5.73
2022-10-30T10:11:56.744Z,5.97
2022-10-30T10:14:26.837Z,6.77
2022-10-30T10:16:55.076Z,5.70
2022-10-30T10:19:40.900Z,6.17
2022-10-30T10:22:18.654Z,6.43
2022-10-30T10:24:46.413Z,5.80
2022-10-30T10:27:42.903Z,5.83
2022-10-30T10:30:17.807Z,5.90
2022-10-30T10:32:51.306Z,5.30
2022-10-30T10:35:37.530Z,5.63
2022-10-30T10:38:05.037Z,5.50
2022-10-30T10:40:39.923Z,6.27
2022-10-30T10:43:30.720Z,5.10
2022-10-30T10:46:21.479Z,5.57
2022-10-30T10:48:56.630Z,5.17
2022-10-30T10:51:27.575Z,4.80
2022-10-30T10:54:03.563Z,5.27
2022-10-30T10:56:35.488Z,5.53
2022-10-30T10:59:13.217Z,5.30
2022-10-30T11:01:41.709Z,5.00
2022-10-30T11:04:19.505Z,4.80
2022-10-30T11:06:53.862Z,5.10
2022-10-30T11:09:22.400Z,5.07
2022-10-30T11:11:53.933Z,5.10
2022-10-30T11:14:30.802Z,4.80
2022-10-30T11:16:58.282Z,5.43
2022-10-30T11:19:26.211Z,5.20
2022-10-30T11:21:54.344Z,5.43
2022-10-30T11:24:37.362Z,5.50
2022-10-30T11:27:23.337Z,4.57
2022-10-30T11:30:05.752Z,5.03
2022-10-30T11:32:34.309Z,4.90
2022-10-30T11:35:08.237Z,4.77
2022-10-30T11:37:36.806Z,5.17
2022-10-30T11:40:04.270Z,4.83
2022-10-30T11:42:32.001Z,4.47
2022-10-30T11:44:59.549Z,4.80
2022-10-30T11:50:03.750Z,4.40
2022-10-30T11:52:36.011Z,4.50
2022-10-30T11:55:09.611Z,5.13
2022-10-30T11:57:44.383Z,5.27
2022-10-30T12:00:17.361Z,4.63
2022-10-30T12:02:46.321Z,5.10
2022-10-30T12:05:41.457Z,4.70
2022-10-30T12:08:10.124Z,4.40
2022-10-30T12:10:49.927Z,4.97
2022-10-30T12:13:18.852Z,4.67
2022-10-30T12:15:47.634Z,4.73
2022-10-30T12:18:20.145Z,4.63
2022-10-30T12:20:49.822Z,4.77
2022-10-30T12:23:18.456Z,4.73
2022-10-30T12:25:49.831Z,4.90
2022-10-30T12:28:18.805Z,5.17
2022-10-30T12:30:55.403Z,4.30
2022-10-30T12:33:33.732Z,4.67
2022-10-30T12:36:03.537Z,5.07
2022-10-30T12:38:37.266Z,5.23
2022-10-30T12:41:20.010Z,5.00
2022-10-30T12:43:50.873Z,4.87
2022-10-30T12:46:31.193Z,4.53
2022-10-30T12:49:07.885Z,4.57
2022-10-30T12:51:39.770Z,4.80
2022-10-30T12:54:37.313Z,5.17
2022-10-30T12:57:09.658Z,5.43
2022-10-30T12:59:44.350Z,5.07
2022-10-30T13:02:16.394Z,5.47
2022-10-30T13:04:46.800Z,5.23
2022-10-30T13:07:33.570Z,5.70
2022-10-30T13:10:13.579Z,5.87
2022-10-30T13:12:42.623Z,5.30
2022-10-30T13:15:23.512Z,4.83
2022-10-30T13:17:51.420Z,5.10
2022-10-30T13:20:19.375Z,4.87
2022-10-30T13:22:49.859Z,5.83
2022-10-30T13:25:22.821Z,5.20
2022-10-30T13:27:50.290Z,5.57
2022-10-30T13:30:17.806Z,4.83
2022-10-30T13:32:45.279Z,5.20
2022-10-30T13:35:35.846Z,5.57
2022-10-30T13:38:06.123Z,5.73
2022-10-30T13:40:38.193Z,5.40
2022-10-30T13:43:24.384Z,5.70
2022-10-30T13:46:03.862Z,5.00
2022-10-30T13:48:49.492Z,5.33
2022-10-30T13:51:35.531Z,5.47
2022-10-30T13:54:03.136Z,5.27
2022-10-30T13:56:30.935Z,5.47
2022-10-30T13:59:05.629Z,5.17
2022-10-30T14:01:36.376Z,5.93
2022-10-30T14:04:07.460Z,6.37
2022-10-30T14:06:53.040Z,4.63
2022-10-30T14:09:32.806Z,5.00
2022-10-30T14:12:19.074Z,5.30
2022-10-30T14:14:48.031Z,5.77
2022-10-30T14:17:16.656Z,5.20
2022-10-30T14:20:14.577Z,5.20
2022-10-30T14:22:42.238Z,5.17
2022-10-30T14:25:13.753Z,5.00
2022-10-30T14:27:41.224Z,4.80
2022-10-30T14:30:19.400Z,4.57
2022-10-30T14:32:53.349Z,4.90
2022-10-30T14:35:31.475Z,5.07
2022-10-30T14:38:15.421Z,4.63
2022-10-30T14:41:13.727Z,4.57
2022-10-30T14:43:48.810Z,5.00
2022-10-30T14:46:27.861Z,5.03
2022-10-30T14:49:01.311Z,5.53
2022-10-30T14:51:35.491Z,4.53
2022-10-30T14:54:18.575Z,4.83
2022-10-30T14:56:47.891Z,4.80
2022-10-30T14:59:15.333Z,4.43
2022-10-30T15:02:01.745Z,5.87
2022-10-30T15:04:37.090Z,5.23
2022-10-30T15:07:13.718Z,5.67
2022-10-30T15:09:46.316Z,5.20
2022-10-30T15:12:34.757Z,5.30
2022-10-30T15:15:04.563Z,5.53
2022-10-30T15:17:35.281Z,5.13
2022-10-30T15:20:05.578Z,5.77
2022-10-30T15:22:33.458Z,5.23
2022-10-30T15:25:01.864Z,5.50
2022-10-30T15:27:29.857Z,5.70
2022-10-30T15:29:59.522Z,5.50
2022-10-30T15:32:27.057Z,5.07
2022-10-30T15:34:54.522Z,4.80
2022-10-30T15:37:22.447Z,5.77
2022-10-30T15:39:50.215Z,6.30
2022-10-30T15:42:17.804Z,5.40
2022-10-30T15:44:46.576Z,5.87
2022-10-30T15:47:16.011Z,6.10
2022-10-30T15:49:48.992Z,5.67
2022-10-30T15:52:25.120Z,6.77
2022-10-30T15:55:01.186Z,8.47
2022-10-30T15:58:01.696Z,7.23
2022-10-30T16:00:37.345Z,7.40
2022-10-30T16:03:13.779Z,7.63
2022-10-30T16:05:41.346Z,6.47
2022-10-30T16:08:35.275Z,6.07
2022-10-30T16:11:02.832Z,5.97
2022-10-30T16:13:31.377Z,8.77
2022-10-30T16:15:59.535Z,9.43
2022-10-30T16:18:28.935Z,8.40
2022-10-30T16:20:58.178Z,8.73
2022-10-30T16:23:25.707Z,8.27
2022-10-30T16:25:57.978Z,7.30
2022-10-30T16:28:27.931Z,7.80
2022-10-30T16:30:57.405Z,8.63
2022-10-30T16:33:26.835Z,7.50
2022-10-30T16:36:04.525Z,7.50
2022-10-30T16:38:34.664Z,7.00
2022-10-30T16:41:02.191Z,7.37
2022-10-30T16:43:31.001Z,7.17
2022-10-30T16:46:17.096Z,8.40
2022-10-30T16:49:01.734Z,7.00
2022-10-30T16:51:32.399Z,7.90
2022-10-30T16:53:59.943Z,7.60
2022-10-30T16:56:28.880Z,7.33
2022-10-30T16:59:17.098Z,7.13
2022-10-30T17:01:44.832Z,7.03
2022-10-30T17:04:16.190Z,7.07
2022-10-30T17:06:44.672Z,7.93
2022-10-30T17:09:28.543Z,8.47
2022-10-30T17:12:22.297Z,8.40
2022-10-30T17:14:53.943Z,8.80
2022-10-30T17:17:26.227Z,8.53
2022-10-30T17:19:56.274Z,8.50
2022-10-30T17:22:25.233Z,8.20
2022-10-30T17:24:55.829Z,7.57
2022-10-30T17:27:35.803Z,10.57
2022-10-30T17:30:05.741Z,12.83
2022-10-30T17:32:43.752Z,12.70
2022-10-30T17:35:18.369Z,12.03
2022-10-30T17:37:46.103Z,8.70
2022-10-30T17:40:14.066Z,9.37
2022-10-30T17:42:42.540Z,8.97
2022-10-30T17:45:13.174Z,8.57
2022-10-30T17:47:40.836Z,7.47
2022-10-30T17:50:08.864Z,9.17
2022-10-30T17:52:38.356Z,7.90
2022-10-30T17:55:19.871Z,8.10
2022-10-30T17:57:47.590Z,8.50
2022-10-30T18:00:15.491Z,8.90
2022-10-30T18:02:52.036Z,8.30
2022-10-30T18:05:21.414Z,8.77
2022-10-30T18:10:20.654Z,8.97
2022-10-30T18:12:48.213Z,9.50
2022-10-30T18:15:27.969Z,9.17
2022-10-30T18:17:56.016Z,10.40
2022-10-30T18:20:23.686Z,9.67
2022-10-30T18:22:51.745Z,9.67
2022-10-30T18:25:22.585Z,11.60
2022-10-30T18:27:50.123Z,9.70
2022-10-30T18:30:18.016Z,8.20
2022-10-30T18:32:46.283Z,10.37
2022-10-30T18:35:14.053Z,10.83
2022-10-30T18:37:41.822Z,9.87
2022-10-30T18:40:09.896Z,9.23
2022-10-30T18:42:40.840Z,9.50
2022-10-30T18:45:27.665Z,9.07
2022-10-30T18:48:00.031Z,8.67
2022-10-30T18:50:28.966Z,8.63
2022-10-30T18:53:00.426Z,7.87
2022-10-30T18:55:38.753Z,10.13
2022-10-30T18:58:09.861Z,10.13
2022-10-30T19:00:58.145Z,9.30
2022-10-30T19:03:27.779Z,7.97
2022-10-30T19:05:55.638Z,8.53
2022-10-30T19:08:25.112Z,8.57
2022-10-30T19:10:56.561Z,7.80
2022-10-30T19:13:24.569Z,8.17
2022-10-30T19:15:59.024Z,7.87
2022-10-30T19:18:27.995Z,7.77
2022-10-30T19:21:04.761Z,7.93
2022-10-30T19:23:34.149Z,7.50
2022-10-30T19:26:01.776Z,8.57
2022-10-30T19:28:29.567Z,8.27
2022-10-30T19:30:57.202Z,8.37
2022-10-30T19:33:25.446Z,7.53
2022-10-30T19:36:09.270Z,8.13
2022-10-30T19:38:36.861Z,8.40
2022-10-30T19:41:04.414Z,8.13
2022-10-30T19:43:32.035Z,7.67
2022-10-30T19:45:59.655Z,7.30
2022-10-30T19:48:55.961Z,7.27
2022-10-30T19:51:15.008Z,7.60
2022-10-30T19:53:42.965Z,8.47
2022-10-30T19:56:11.562Z,8.07
2022-10-30T19:58:39.231Z,8.50
2022-10-30T20:01:06.913Z,8.07
2022-10-30T20:03:35.908Z,8.27
2022-10-30T20:06:03.485Z,8.80
2022-10-30T20:08:30.959Z,8.37
2022-10-30T20:10:59.666Z,8.73
2022-10-30T20:13:28.087Z,8.63
2022-10-30T20:15:56.706Z,8.23
2022-10-30T20:18:25.393Z,8.50
2022-10-30T20:20:54.033Z,8.87
2022-10-30T20:23:22.305Z,8.30
2022-10-30T20:25:53.927Z,7.60
2022-10-30T20:28:25.637Z,8.13
2022-10-30T20:30:53.808Z,8.10
2022-10-30T20:33:22.135Z,7.93
2022-10-30T20:35:50.368Z,8.67
2022-10-30T20:38:18.837Z,8.10
2022-10-30T20:40:47.642Z,7.93
2022-10-30T20:43:19.502Z,7.70
2022-10-30T20:45:47.350Z,7.10
2022-10-30T20:48:15.364Z,8.33
2022-10-30T20:50:46.422Z,7.93
2022-10-30T20:53:17.016Z,8.43
2022-10-30T20:55:46.737Z,8.90
2022-10-30T20:58:14.477Z,8.33
2022-10-30T21:00:42.605Z,7.70
2022-10-30T21:03:11.348Z,9.60
2022-10-30T21:05:43.880Z,9.47
2022-10-30T21:08:12.462Z,9.77
2022-10-30T21:10:40.428Z,9.47
2022-10-30T21:13:09.716Z,7.90
2022-10-30T21:15:41.485Z,9.23
2022-10-30T21:18:09.596Z,8.33
2022-10-30T21:20:37.262Z,8.23
2022-10-30T21:23:05.299Z,8.37
2022-10-30T21:25:33.061Z,8.20
2022-10-30T21:28:00.905Z,9.17
2022-10-30T21:30:28.702Z,8.80
2022-10-30T21:32:56.276Z,8.80
2022-10-30T21:35:23.840Z,8.50
2022-10-30T21:37:51.510Z,8.20
2022-10-30T21:40:19.030Z,8.97
2022-10-30T21:42:49.852Z,8.77
2022-10-30T21:45:17.547Z,8.57
2022-10-30T21:47:45.054Z,9.17
2022-10-30T21:50:13.131Z,9.00
2022-10-30T21:52:41.231Z,8.97
2022-10-30T21:55:09.141Z,9.30
2022-10-30T21:57:37.007Z,9.13
2022-10-30T22:00:06.362Z,9.80
2022-10-30T22:02:35.249Z,9.67
2022-10-30T22:05:02.924Z,9.93
2022-10-30T22:07:30.455Z,10.87
2022-10-30T22:09:58.054Z,11.07
2022-10-30T22:12:25.828Z,10.40
2022-10-30T22:14:53.372Z,10.27
2022-10-30T22:17:20.939Z,9.60
2022-10-30T22:19:48.465Z,9.27
2022-10-30T22:22:15.977Z,10.03
2022-10-30T22:24:43.660Z,10.07
2022-10-30T22:27:11.209Z,10.33
2022-10-30T22:29:38.784Z,9.77
2022-10-30T22:32:06.330Z,10.47
2022-10-30T22:34:33.815Z,10.07
2022-10-30T22:37:01.378Z,10.33
2022-10-30T22:39:28.918Z,10.77
2022-10-30T22:41:56.491Z,10.07
2022-10-30T22:44:24.020Z,10.53
2022-10-30T22:46:51.517Z,9.93
2022-10-30T22:49:18.996Z,9.97
2022-10-30T22:51:46.518Z,10.43
2022-10-30T22:54:13.985Z,9.83
2022-10-30T22:56:41.877Z,10.23
2022-10-30T22:59:11.453Z,10.93
2022-10-30T23:01:39.960Z,11.07
2022-10-30T23:04:07.949Z,11.83
2022-10-30T23:06:36.047Z,10.77
2022-10-30T23:09:05.114Z,10.23
2022-10-30T23:11:32.952Z,10.47
2022-10-30T23:14:00.430Z,11.40
2022-10-30T23:16:28.030Z,11.33
2022-10-30T23:18:56.877Z,10.53
2022-10-30T23:21:25.455Z,12.10
2022-10-30T23:23:53.426Z,10.37
2022-10-30T23:26:22.394Z,10.40
2022-10-30T23:28:51.079Z,12.37
2022-10-30T23:31:20.796Z,11.40
2022-10-30T23:33:48.882Z,11.70
2022-10-30T23:36:16.860Z,11.23
2022-10-30T23:38:44.436Z,11.33
2022-10-30T23:41:11.947Z,11.67
2022-10-30T23:43:39.490Z,12.20
2022-10-30T23:46:07.016Z,11.80
2022-10-30T23:48:34.549Z,12.40
2022-10-30T23:51:06.382Z,11.50
2022-10-30T23:53:33.945Z,11.47
2022-10-30T23:56:01.750Z,11.33
2022-10-30T23:58:29.241Z,10.90
